Time;durP1;ratioP1;P1;durP2;ratioP2;P2;SDS_P1;SDS_P2;PMS_P1;PMS_P2;Temp;Humidity;BMP_temperature;BMP_pressure;BME280_temperature;BME280_humidity;BME280_pressure;Samples;Min_cycle;Max_cycle;Signal;HPM_P1;HPM_P2
2022/09/27 00:01:00;;;;;;;;;;;21.90;47.70;20.70;98988.00;;;;5069811;28;19917;-71
2022/09/27 00:03:46;;;;;;;;;;;21.90;47.70;20.70;98979.00;;;;5079814;28;20227;-71
2022/09/27 00:06:33;;;;;;;;;;;21.80;47.70;20.70;98983.00;;;;5078669;28;19932;-71
2022/09/27 00:09:19;;;;;;;;;;;21.90;47.70;20.70;98992.00;;;;5078158;28;19916;-71
2022/09/27 00:12:05;;;;;;;;;;;21.90;47.70;20.70;98994.00;;;;5065879;28;19928;-71
2022/09/27 00:14:51;;;;;;;;;;;21.90;47.70;20.70;98989.00;;;;5084624;28;19916;-71
2022/09/27 00:17:37;;;;;;;;;;;21.90;47.70;20.70;98996.00;;;;5075184;28;19962;-71
2022/09/27 00:20:23;;;;;;;;;;;21.90;47.70;20.70;98991.00;;;;5082635;28;20477;-71
2022/09/27 00:23:09;;;;;;;;;;;21.90;47.70;20.70;98992.00;;;;5083437;28;20499;-71
2022/09/27 00:25:55;;;;;;;;;;;21.90;47.70;20.70;98995.00;;;;5082534;28;20407;-71
2022/09/27 00:28:41;;;;;;;;;;;21.80;47.70;20.70;98994.00;;;;5077767;28;20087;-71
2022/09/27 00:31:28;;;;;;;;;;;21.80;47.60;20.70;98995.00;;;;5078234;28;20373;-71
2022/09/27 00:34:20;;;;;;;;;;;21.90;47.70;20.70;98992.00;;;;5074742;28;19927;-71
2022/09/27 00:37:07;;;;;;;;;;;21.90;47.70;20.70;98995.00;;;;5063525;28;19920;-71
2022/09/27 00:39:53;;;;;;;;;;;21.90;47.70;20.70;98991.00;;;;5077339;28;20571;-71
2022/09/27 00:42:39;;;;;;;;;;;21.90;47.70;20.70;98999.00;;;;5078792;28;19995;-71
2022/09/27 00:45:25;;;;;;;;;;;21.90;47.70;20.70;99001.00;;;;5080745;28;19928;-71
2022/09/27 00:48:12;;;;;;;;;;;21.90;47.70;20.70;98995.00;;;;5079327;28;19915;-71
2022/09/27 00:50:59;;;;;;;;;;;21.90;47.70;20.70;98995.00;;;;5096676;27;19993;-71
2022/09/27 00:53:50;;;;;;;;;;;21.90;47.70;20.70;98999.00;;;;5086615;27;19920;-70
2022/09/27 00:56:36;;;;;;;;;;;21.90;47.70;20.70;98999.00;;;;5076045;28;19974;-70
2022/09/27 00:59:49;;;;;;;;;;;21.90;47.70;20.70;98999.00;;;;5077421;28;19932;-70
2022/09/27 01:02:41;;;;;;;;;;;21.80;47.60;20.60;98998.00;;;;5062506;28;19919;-71
2022/09/27 01:05:27;;;;;;;;;;;21.90;47.70;20.60;98998.00;;;;5076886;28;19924;-71
2022/09/27 01:08:13;;;;;;;;;;;21.80;47.60;20.60;98998.00;;;;5084312;28;19922;-70
2022/09/27 01:11:12;;;;;;;;;;;21.90;47.70;20.60;99006.00;;;;5076668;28;19917;-70
2022/09/27 01:14:29;;;;;;;;;;;21.80;47.60;20.60;99005.00;;;;5093612;28;20285;-71
2022/09/27 01:17:37;;;;;;;;;;;21.80;47.70;20.60;99008.00;;;;5087805;28;20229;-71
2022/09/27 01:20:35;;;;;;;;;;;21.80;47.60;20.60;99009.00;;;;5078497;28;19920;-71
2022/09/27 01:23:47;;;;;;;;;;;21.80;47.60;20.60;99024.00;;;;5077843;28;20285;-71
2022/09/27 01:26:41;;;;;;;;;;;21.80;47.60;20.60;99010.00;;;;5089259;28;19921;-71
2022/09/27 01:29:46;;;;;;;;;;;21.80;47.60;20.60;99012.00;;;;5095699;27;19924;-71
2022/09/27 01:32:50;;;;;;;;;;;21.80;47.60;20.60;99007.00;;;;5075637;28;19926;-71
2022/09/27 01:35:44;;;;;;;;;;;21.80;47.60;20.60;99016.00;;;;5086098;28;19970;-71
2022/09/27 01:38:42;;;;;;;;;;;21.80;47.70;20.60;99013.00;;;;5089358;28;19920;-71
2022/09/27 01:41:48;;;;;;;;;;;21.80;47.70;20.60;99019.00;;;;5079426;28;19919;-71
2022/09/27 01:44:38;;;;;;;;;;;21.80;47.60;20.60;99018.00;;;;5092386;28;19956;-71
2022/09/27 01:47:28;;;;;;;;;;;21.80;47.70;20.60;99013.00;;;;5071114;28;19916;-70
2022/09/27 01:50:17;;;;;;;;;;;21.70;47.60;20.60;99028.00;;;;5095326;28;19938;-71
2022/09/27 01:53:14;;;;;;;;;;;21.80;47.80;20.60;99018.00;;;;5074840;28;20477;-71
2022/09/27 01:56:02;;;;;;;;;;;21.80;47.70;20.60;99030.00;;;;5088363;28;19920;-71
2022/09/27 01:58:52;;;;;;;;;;;21.70;47.60;20.60;99022.00;;;;5084802;28;19964;-71
2022/09/27 02:01:38;;;;;;;;;;;21.80;47.70;20.60;99025.00;;;;5072571;28;19924;-71
2022/09/27 02:04:27;;;;;;;;;;;21.80;47.70;20.50;99018.00;;;;5085521;27;19924;-71
2022/09/27 02:07:19;;;;;;;;;;;21.80;47.70;20.60;99012.00;;;;5076735;28;19916;-71
2022/09/27 02:10:08;;;;;;;;;;;21.70;47.60;20.50;99021.00;;;;5076414;28;20463;-71
2022/09/27 02:12:59;;;;;;;;;;;21.70;47.60;20.50;99026.00;;;;5079238;28;20015;-70
2022/09/27 02:15:52;;;;;;;;;;;21.70;47.60;20.50;99025.00;;;;5089846;28;19924;-71
2022/09/27 02:19:06;;;;;;;;;;;21.70;47.60;20.50;99028.00;;;;5067382;28;19916;-71
2022/09/27 02:22:00;;;;;;;;;;;21.70;47.70;20.50;99019.00;;;;5091665;28;19947;-71
2022/09/27 02:25:12;;;;;;;;;;;21.70;47.70;20.50;99025.00;;;;5060282;28;19924;-71
2022/09/27 02:28:05;;;;;;;;;;;21.70;47.70;20.50;99028.00;;;;5075100;28;19943;-71
2022/09/27 02:30:51;;;;;;;;;;;21.70;47.70;20.50;99031.00;;;;5090287;28;19924;-71
2022/09/27 02:33:49;;;;;;;;;;;21.70;47.80;20.50;99034.00;;;;5073555;28;20483;-71
2022/09/27 02:36:36;;;;;;;;;;;21.70;47.80;20.50;99031.00;;;;5089022;28;19971;-71
2022/09/27 02:39:22;;;;;;;;;;;21.70;47.80;20.50;99033.00;;;;5082749;28;20274;-71
2022/09/27 02:42:08;;;;;;;;;;;21.70;47.80;20.50;99033.00;;;;5075027;28;20468;-71
2022/09/27 02:44:53;;;;;;;;;;;21.70;47.70;20.50;99038.00;;;;5079883;28;20397;-71
2022/09/27 02:48:09;;;;;;;;;;;21.70;47.70;20.50;99035.00;;;;5078600;28;19916;-71
2022/09/27 02:51:17;;;;;;;;;;;21.60;47.70;20.40;99029.00;;;;5065806;28;20403;-71
2022/09/27 02:54:10;;;;;;;;;;;21.60;47.70;20.40;99033.00;;;;5095991;28;19985;-71
2022/09/27 02:57:30;;;;;;;;;;;21.60;47.70;20.40;99028.00;;;;5066077;28;19920;-71
2022/09/27 03:00:18;;;;;;;;;;;21.60;47.80;20.40;99031.00;;;;5088458;28;19924;-70
2022/09/27 03:03:19;;;;;;;;;;;21.60;47.80;20.40;99039.00;;;;5085080;28;20280;-71
2022/09/27 03:06:07;;;;;;;;;;;21.60;47.70;20.40;99034.00;;;;5066617;28;20288;-71
2022/09/27 03:08:53;;;;;;;;;;;21.60;47.80;20.40;99034.00;;;;5070458;28;19928;-70
2022/09/27 03:11:39;;;;;;;;;;;21.60;47.80;20.40;99030.00;;;;5064298;28;19955;-70
2022/09/27 03:14:25;;;;;;;;;;;21.60;47.70;20.40;99033.00;;;;5084909;28;19916;-70
2022/09/27 03:17:11;;;;;;;;;;;21.60;47.70;20.40;99030.00;;;;5082782;28;19981;-71
2022/09/27 03:19:57;;;;;;;;;;;21.60;47.80;20.40;99037.00;;;;5079645;28;20297;-70
2022/09/27 03:22:43;;;;;;;;;;;21.60;47.80;20.40;99039.00;;;;5080470;28;20384;-71
2022/09/27 03:25:29;;;;;;;;;;;21.60;47.70;20.40;99039.00;;;;5087719;28;19920;-70
2022/09/27 03:28:15;;;;;;;;;;;21.60;47.80;20.40;99039.00;;;;5083248;28;19928;-71
2022/09/27 03:31:01;;;;;;;;;;;21.50;47.70;20.40;99043.00;;;;5083448;28;20471;-70
2022/09/27 03:33:47;;;;;;;;;;;21.60;47.70;20.40;99039.00;;;;5086914;28;19920;-71
2022/09/27 03:36:33;;;;;;;;;;;21.60;47.70;20.40;99033.00;;;;5071299;28;20164;-71
2022/09/27 03:39:19;;;;;;;;;;;21.60;47.80;20.40;99032.00;;;;5097326;28;19937;-71
2022/09/27 03:42:05;;;;;;;;;;;21.60;47.80;20.40;99037.00;;;;5081299;28;20368;-71
2022/09/27 03:44:51;;;;;;;;;;;21.60;47.70;20.40;99034.00;;;;5086772;28;19920;-71
2022/09/27 03:47:40;;;;;;;;;;;21.60;47.70;20.40;99038.00;;;;5073787;28;20190;-71
2022/09/27 03:50:26;;;;;;;;;;;21.60;47.80;20.40;99040.00;;;;5082025;28;20028;-71
2022/09/27 03:53:12;;;;;;;;;;;21.60;47.70;20.40;99051.00;;;;5077824;28;19920;-71
2022/09/27 03:55:58;;;;;;;;;;;21.60;47.70;20.40;99039.00;;;;5089470;28;19923;-71
2022/09/27 03:58:44;;;;;;;;;;;21.50;47.70;20.40;99051.00;;;;5088540;28;19965;-71
2022/09/27 04:01:30;;;;;;;;;;;21.60;47.70;20.40;99052.00;;;;5090298;28;19932;-71
2022/09/27 04:04:17;;;;;;;;;;;21.60;47.70;20.40;99052.00;;;;5081013;28;19995;-71
2022/09/27 04:07:03;;;;;;;;;;;21.60;47.70;20.40;99058.00;;;;5077969;28;19950;-71
2022/09/27 04:09:49;;;;;;;;;;;21.60;47.70;20.40;99044.00;;;;5078296;28;19917;-71
2022/09/27 04:12:35;;;;;;;;;;;21.60;47.60;20.40;99048.00;;;;5075748;28;19955;-71
2022/09/27 04:15:21;;;;;;;;;;;21.60;47.60;20.40;99049.00;;;;5076856;28;19920;-71
2022/09/27 04:18:07;;;;;;;;;;;21.60;47.60;20.40;99044.00;;;;5085167;28;20018;-71
2022/09/27 04:20:53;;;;;;;;;;;21.60;47.60;20.40;99047.00;;;;5076030;28;20281;-71
2022/09/27 04:23:39;;;;;;;;;;;21.60;47.60;20.40;99054.00;;;;5076960;28;19967;-71
2022/09/27 04:26:25;;;;;;;;;;;21.60;47.60;20.40;99051.00;;;;5085345;28;19920;-71
2022/09/27 04:29:11;;;;;;;;;;;21.60;47.60;20.40;99055.00;;;;5086674;28;20488;-71
2022/09/27 04:31:58;;;;;;;;;;;21.50;47.60;20.40;99061.00;;;;5081579;28;20472;-70
2022/09/27 04:37:48;;;;;;;;;;;21.50;47.50;20.30;99070.00;;;;5079849;28;19991;-70
2022/09/27 04:40:34;;;;;;;;;;;21.50;47.50;20.30;99071.00;;;;5078946;28;19967;-70
2022/09/27 04:43:20;;;;;;;;;;;21.50;47.60;20.30;99078.00;;;;5075482;28;19924;-71
2022/09/27 04:46:06;;;;;;;;;;;21.50;47.50;20.30;99068.00;;;;5082391;28;19924;-70
2022/09/27 04:48:52;;;;;;;;;;;21.50;47.50;20.30;99075.00;;;;5082254;28;19916;-71
2022/09/27 04:51:38;;;;;;;;;;;21.50;47.50;20.30;99076.00;;;;5085161;28;19923;-70
2022/09/27 04:54:24;;;;;;;;;;;21.50;47.50;20.30;99081.00;;;;5081098;28;19923;-71
2022/09/27 04:57:11;;;;;;;;;;;21.50;47.50;20.30;99087.00;;;;5077868;28;19928;-71
2022/09/27 04:59:59;;;;;;;;;;;21.50;47.50;20.30;99081.00;;;;5087003;28;20010;-70
2022/09/27 05:02:47;;;;;;;;;;;21.40;47.40;20.30;99078.00;;;;5081679;28;19923;-71
2022/09/27 05:05:33;;;;;;;;;;;21.50;47.50;20.30;99083.00;;;;5084079;28;19935;-70
2022/09/27 05:08:19;;;;;;;;;;;21.40;47.40;20.30;99090.00;;;;5076056;28;19921;-71
2022/09/27 05:11:05;;;;;;;;;;;21.40;47.50;20.20;99086.00;;;;5088252;28;19919;-71
2022/09/27 05:13:51;;;;;;;;;;;21.50;47.60;20.20;99098.00;;;;5075442;28;19925;-71
2022/09/27 05:16:37;;;;;;;;;;;21.40;47.50;20.20;99096.00;;;;5079538;28;19966;-70
2022/09/27 05:19:23;;;;;;;;;;;21.40;47.50;20.20;99099.00;;;;5079586;28;19920;-71
2022/09/27 05:22:10;;;;;;;;;;;21.40;47.50;20.20;99106.00;;;;5079025;28;19917;-71
2022/09/27 05:24:56;;;;;;;;;;;21.40;47.50;20.20;99106.00;;;;5078440;28;19920;-70
2022/09/27 05:27:42;;;;;;;;;;;21.40;47.50;20.20;99099.00;;;;5078673;28;19921;-71
2022/09/27 05:30:28;;;;;;;;;;;21.40;47.50;20.20;99104.00;;;;5079398;28;19920;-71
2022/09/27 05:33:14;;;;;;;;;;;21.40;47.40;20.20;99107.00;;;;5078660;28;19925;-70
2022/09/27 05:36:01;;;;;;;;;;;21.30;47.40;20.20;99110.00;;;;5080534;28;21407;-70
2022/09/27 05:38:48;;;;;;;;;;;21.40;47.40;20.20;99115.00;;;;5088454;28;19967;-70
2022/09/27 05:41:34;;;;;;;;;;;21.40;47.50;20.20;99107.00;;;;5077322;28;19920;-71
2022/09/27 05:44:20;;;;;;;;;;;21.40;47.50;20.20;99107.00;;;;5071726;28;19928;-71
2022/09/27 05:47:06;;;;;;;;;;;21.40;47.50;20.20;99113.00;;;;5071955;28;20361;-70
2022/09/27 05:49:54;;;;;;;;;;;21.40;47.40;20.20;99108.00;;;;5075730;28;19928;-70
2022/09/27 05:52:40;;;;;;;;;;;21.40;47.40;20.20;99121.00;;;;5073000;28;19920;-71
2022/09/27 05:55:26;;;;;;;;;;;21.40;47.40;20.20;99125.00;;;;5070404;28;19916;-71
2022/09/27 05:58:14;;;;;;;;;;;21.40;47.40;20.20;99120.00;;;;5079646;28;19920;-71
2022/09/27 06:01:00;;;;;;;;;;;21.30;47.40;20.10;99120.00;;;;5062050;28;19961;-71
2022/09/27 06:03:46;;;;;;;;;;;21.30;47.40;20.10;99120.00;;;;5083368;28;19921;-70
2022/09/27 06:06:35;;;;;;;;;;;21.30;47.40;20.10;99131.00;;;;5080714;28;19916;-70
2022/09/27 06:09:21;;;;;;;;;;;21.30;47.40;20.10;99130.00;;;;5074755;28;19928;-70
2022/09/27 06:12:10;;;;;;;;;;;21.30;47.40;20.10;99124.00;;;;5079454;28;19931;-70
2022/09/27 06:14:56;;;;;;;;;;;21.30;47.40;20.10;99125.00;;;;5072209;28;19920;-71
2022/09/27 06:17:42;;;;;;;;;;;21.30;47.40;20.10;99131.00;;;;5079796;28;20313;-71
2022/09/27 06:20:28;;;;;;;;;;;21.30;47.40;20.10;99128.00;;;;5072769;28;20271;-71
2022/09/27 06:23:23;;;;;;;;;;;21.30;47.40;20.10;99123.00;;;;5079414;28;19916;-70
2022/09/27 06:26:09;;;;;;;;;;;21.30;47.40;20.10;99121.00;;;;5075573;28;20330;-70
2022/09/27 06:28:55;;;;;;;;;;;21.30;47.40;20.10;99123.00;;;;5073182;28;19917;-70
2022/09/27 06:31:41;;;;;;;;;;;21.30;47.40;20.10;99133.00;;;;5078135;28;19971;-71
2022/09/27 06:34:27;;;;;;;;;;;21.20;47.30;20.10;99133.00;;;;5072160;28;19975;-70
2022/09/27 06:37:14;;;;;;;;;;;21.20;47.40;20.10;99137.00;;;;5076200;28;20254;-70
2022/09/27 06:40:01;;;;;;;;;;;21.20;47.30;20.10;99141.00;;;;5079888;28;20286;-71
2022/09/27 06:42:48;;;;;;;;;;;21.20;47.40;20.10;99146.00;;;;5077487;28;19924;-70
2022/09/27 06:45:35;;;;;;;;;;;21.20;47.30;20.10;99159.00;;;;5079689;28;19935;-70
2022/09/27 06:48:21;;;;;;;;;;;21.20;47.30;20.00;99161.00;;;;5057071;28;20189;-70
2022/09/27 06:51:07;;;;;;;;;;;21.20;47.30;20.00;99161.00;;;;5072695;28;19961;-70
2022/09/27 06:53:53;;;;;;;;;;;21.20;47.30;20.00;99160.00;;;;5065324;28;19916;-70
2022/09/27 06:56:39;;;;;;;;;;;21.20;47.40;20.00;99166.00;;;;5082048;28;20361;-70
2022/09/27 07:02:29;;;;;;;;;;;21.20;47.30;20.00;99175.00;;;;5076212;28;19971;-70
2022/09/27 07:05:16;;;;;;;;;;;21.20;47.40;20.00;99173.00;;;;5081619;28;20384;-70
2022/09/27 07:08:03;;;;;;;;;;;21.20;47.30;20.00;99183.00;;;;5089240;28;20474;-70
2022/09/27 07:10:49;;;;;;;;;;;21.20;47.30;20.00;99184.00;;;;5060858;28;19917;-70
2022/09/27 07:13:39;;;;;;;;;;;21.20;47.30;20.00;99192.00;;;;5082561;28;19924;-70
2022/09/27 07:16:25;;;;;;;;;;;21.20;47.30;20.00;99199.00;;;;5066417;28;19960;-71
2022/09/27 07:19:13;;;;;;;;;;;21.20;47.30;20.00;99192.00;;;;5075453;28;19953;-71
2022/09/27 07:21:59;;;;;;;;;;;21.20;47.30;20.00;99191.00;;;;5085182;28;19921;-71
2022/09/27 07:24:45;;;;;;;;;;;21.10;47.30;20.00;99201.00;;;;5079456;28;20273;-71
2022/09/27 07:27:31;;;;;;;;;;;21.20;47.40;20.00;99190.00;;;;5079674;28;19916;-70
2022/09/27 07:30:18;;;;;;;;;;;21.20;47.30;20.00;99201.00;;;;5084004;28;19921;-71
2022/09/27 07:33:04;;;;;;;;;;;21.20;47.30;20.00;99197.00;;;;5076989;28;20336;-71
2022/09/27 07:35:50;;;;;;;;;;;21.10;47.30;20.00;99197.00;;;;5098122;28;19974;-70
2022/09/27 07:38:36;;;;;;;;;;;21.20;47.30;20.00;99204.00;;;;5092694;28;20377;-71
2022/09/27 07:41:22;;;;;;;;;;;21.20;47.30;20.00;99201.00;;;;5077975;28;19916;-71
2022/09/27 07:44:09;;;;;;;;;;;21.20;47.30;20.00;99212.00;;;;5071234;28;19924;-70
2022/09/27 07:46:54;;;;;;;;;;;21.20;47.30;20.00;99207.00;;;;5081460;28;19916;-71
2022/09/27 07:49:41;;;;;;;;;;;21.20;47.30;20.00;99217.00;;;;5078017;28;19920;-70
2022/09/27 07:52:26;;;;;;;;;;;21.20;47.30;20.00;99214.00;;;;5076953;28;20592;-71
2022/09/27 07:55:13;;;;;;;;;;;21.20;47.30;20.00;99232.00;;;;5083171;28;19919;-71
2022/09/27 07:58:07;;;;;;;;;;;21.20;47.30;20.00;99224.00;;;;5081625;28;20006;-70
2022/09/27 08:00:55;;;;;;;;;;;21.20;47.30;19.90;99223.00;;;;5069341;28;19916;-70
2022/09/27 08:03:41;;;;;;;;;;;21.20;47.30;19.90;99234.00;;;;5083453;28;19920;-70
2022/09/27 08:06:27;;;;;;;;;;;21.10;47.20;20.00;99227.00;;;;5074586;28;19924;-70
2022/09/27 08:09:13;;;;;;;;;;;21.20;47.30;19.90;99234.00;;;;5085170;28;19920;-70
2022/09/27 08:11:59;;;;;;;;;;;21.10;47.20;19.90;99233.00;;;;5076180;28;19933;-71
2022/09/27 08:14:45;;;;;;;;;;;21.10;47.20;19.90;99237.00;;;;5085139;28;19955;-70
2022/09/27 08:17:31;;;;;;;;;;;21.10;47.20;19.90;99240.00;;;;5073925;28;19928;-70
2022/09/27 08:20:17;;;;;;;;;;;21.10;47.20;19.90;99248.00;;;;5078396;28;19951;-70
2022/09/27 08:23:03;;;;;;;;;;;21.10;47.20;19.90;99248.00;;;;5079021;28;20002;-70
2022/09/27 08:25:53;;;;;;;;;;;21.10;47.20;19.90;99252.00;;;;5089566;28;20357;-70
2022/09/27 08:28:39;;;;;;;;;;;21.10;47.30;19.90;99249.00;;;;5087129;28;19959;-70
2022/09/27 08:31:25;;;;;;;;;;;21.10;47.30;19.90;99256.00;;;;5084788;28;19916;-70
2022/09/27 08:34:10;;;;;;;;;;;21.10;47.30;19.90;99267.00;;;;5081437;28;19920;-70
2022/09/27 08:36:58;;;;;;;;;;;21.10;47.30;19.90;99258.00;;;;5095342;28;19920;-70
2022/09/27 08:39:44;;;;;;;;;;;21.10;47.20;19.90;99259.00;;;;5078389;28;19917;-71
2022/09/27 08:42:50;;;;;;;;;;;21.10;47.20;19.90;99260.00;;;;5085674;28;20328;-70
2022/09/27 08:45:40;;;;;;;;;;;21.10;47.10;19.90;99267.00;;;;5062657;28;20061;-71
2022/09/27 08:48:26;;;;;;;;;;;21.10;47.20;19.90;99264.00;;;;5081337;28;20385;-70
2022/09/27 08:51:13;;;;;;;;;;;21.10;47.20;19.90;99264.00;;;;5094902;27;19920;-70
2022/09/27 08:54:05;;;;;;;;;;;21.10;47.20;19.90;99271.00;;;;5064573;28;19923;-70
2022/09/27 08:56:52;;;;;;;;;;;21.10;47.10;19.90;99276.00;;;;5080070;28;20317;-70
2022/09/27 09:00:06;;;;;;;;;;;21.10;47.20;19.90;99263.00;;;;5088411;27;19947;-70
2022/09/27 09:02:52;;;;;;;;;;;21.10;47.10;19.90;99274.00;;;;5059428;28;19963;-71
2022/09/27 09:05:38;;;;;;;;;;;21.10;47.20;19.90;99264.00;;;;5082267;28;19931;-70
2022/09/27 09:08:53;;;;;;;;;;;21.10;47.20;19.90;99265.00;;;;5063896;28;19916;-70
2022/09/27 09:15:12;;;;;;;;;;;21.10;47.30;19.90;99259.00;;;;5081405;28;20066;-70
2022/09/27 09:18:41;;;;;;;;;;;21.10;47.20;19.90;99267.00;;;;5077915;28;20169;-70
2022/09/27 09:21:40;;;;;;;;;;;21.10;48.00;19.90;99262.00;;;;5070313;28;19951;-70
2022/09/27 09:24:47;;;;;;;;;;;21.10;47.30;19.90;99266.00;;;;5071277;28;20155;-70
2022/09/27 09:27:52;;;;;;;;;;;21.10;47.30;19.90;99265.00;;;;5075349;28;19940;-70
2022/09/27 09:31:10;;;;;;;;;;;21.10;47.30;19.90;99257.00;;;;5086298;27;19916;-70
2022/09/27 09:34:08;;;;;;;;;;;21.10;47.20;19.90;99265.00;;;;5085926;28;19916;-71
2022/09/27 09:37:02;;;;;;;;;;;21.10;47.20;19.90;99266.00;;;;5075336;28;19969;-70
2022/09/27 09:39:51;;;;;;;;;;;21.10;47.20;19.90;99254.00;;;;5088619;27;20433;-70
2022/09/27 09:42:39;;;;;;;;;;;21.10;47.20;19.90;99262.00;;;;5063445;28;19917;-70
2022/09/27 09:45:44;;;;;;;;;;;21.10;47.20;19.90;99264.00;;;;5091363;28;19928;-70
2022/09/27 09:48:38;;;;;;;;;;;21.10;47.10;19.90;99256.00;;;;5085136;27;19924;-70
2022/09/27 09:51:39;;;;;;;;;;;21.10;47.10;19.90;99258.00;;;;5090558;27;20257;-70
2022/09/27 09:54:30;;;;;;;;;;;21.10;47.10;19.90;99261.00;;;;5088384;28;20369;-70
2022/09/27 09:57:24;;;;;;;;;;;21.10;47.00;19.90;99261.00;;;;5079017;28;19920;-70
2022/09/27 10:00:14;;;;;;;;;;;21.10;47.00;19.90;99252.00;;;;5080994;28;19920;-70
2022/09/27 10:03:00;;;;;;;;;;;21.10;47.00;19.90;99256.00;;;;5102451;27;19916;-70
2022/09/27 10:05:46;;;;;;;;;;;21.10;47.00;19.90;99257.00;;;;5081934;28;20390;-70
2022/09/27 10:08:32;;;;;;;;;;;21.10;47.00;19.90;99262.00;;;;5089225;28;19919;-70
2022/09/27 10:11:21;;;;;;;;;;;21.10;47.00;19.90;99245.00;;;;5062660;28;19999;-70
2022/09/27 10:14:11;;;;;;;;;;;21.10;47.00;19.90;99250.00;;;;5102271;27;20747;-70
2022/09/27 10:16:59;;;;;;;;;;;21.10;47.00;19.90;99251.00;;;;5084145;28;19927;-70
2022/09/27 10:19:45;;;;;;;;;;;21.10;47.00;19.90;99252.00;;;;5049358;28;19920;-70
2022/09/27 10:22:38;;;;;;;;;;;21.10;47.10;19.90;99249.00;;;;5064389;28;20217;-70
2022/09/27 10:25:26;;;;;;;;;;;21.10;47.10;19.90;99242.00;;;;5074250;28;19943;-70
2022/09/27 10:28:26;;;;;;;;;;;21.10;47.00;19.90;99250.00;;;;5084966;27;19916;-70
2022/09/27 10:31:14;;;;;;;;;;;21.10;47.00;19.90;99242.00;;;;5077688;28;19985;-70
2022/09/27 10:34:03;;;;;;;;;;;21.10;47.10;19.90;99247.00;;;;5077025;28;19916;-70
2022/09/27 10:37:12;;;;;;;;;;;21.10;47.00;19.90;99239.00;;;;5092864;28;19920;-71
2022/09/27 10:39:58;;;;;;;;;;;21.10;47.00;19.90;99242.00;;;;5061896;28;20289;-71
2022/09/27 10:42:44;;;;;;;;;;;21.00;47.00;19.90;99233.00;;;;5051151;28;20358;-70
2022/09/27 10:45:31;;;;;;;;;;;21.10;47.00;19.90;99236.00;;;;5081448;28;19943;-70
2022/09/27 10:48:19;;;;;;;;;;;21.10;47.00;19.90;99231.00;;;;5074039;28;19943;-70
2022/09/27 10:51:06;;;;;;;;;;;21.10;46.90;19.90;99238.00;;;;5091618;28;20223;-70
2022/09/27 10:53:53;;;;;;;;;;;21.10;46.90;19.90;99233.00;;;;5089575;28;20469;-70
2022/09/27 10:56:39;;;;;;;;;;;21.10;46.80;19.90;99231.00;;;;5078144;28;19917;-70
2022/09/27 10:59:25;;;;;;;;;;;21.20;46.90;19.90;99232.00;;;;5075343;28;19923;-70
2022/09/27 11:02:23;;;;;;;;;;;21.10;46.80;19.90;99235.00;;;;5089017;28;19924;-70
2022/09/27 11:05:14;;;;;;;;;;;21.10;46.80;19.90;99230.00;;;;5085960;28;19989;-70
2022/09/27 11:08:02;;;;;;;;;;;21.10;46.80;19.90;99225.00;;;;5078642;28;19931;-70
2022/09/27 11:11:21;;;;;;;;;;;21.10;46.80;19.90;99225.00;;;;5069518;28;19920;-70
2022/09/27 11:14:19;;;;;;;;;;;21.10;46.80;19.90;99232.00;;;;5073915;28;20370;-70
2022/09/27 11:17:12;;;;;;;;;;;21.10;46.80;19.90;99226.00;;;;5081223;28;20005;-70
2022/09/27 11:20:15;;;;;;;;;;;21.10;46.80;19.90;99231.00;;;;5067714;28;19916;-70
2022/09/27 11:23:14;;;;;;;;;;;21.10;46.70;19.90;99232.00;;;;5085196;28;19920;-70
2022/09/27 11:26:25;;;;;;;;;;;21.10;46.70;19.90;99236.00;;;;5068998;28;19935;-70
2022/09/27 11:29:24;;;;;;;;;;;21.10;46.70;19.90;99243.00;;;;5057379;28;19932;-70
2022/09/27 11:32:32;;;;;;;;;;;21.10;46.60;19.90;99246.00;;;;5077294;28;20284;-70
2022/09/27 11:35:37;;;;;;;;;;;21.10;46.60;19.90;99245.00;;;;5110393;27;20357;-70
2022/09/27 11:38:25;;;;;;;;;;;21.10;46.60;19.90;99267.00;;;;5087592;28;19971;-70
2022/09/27 11:41:29;;;;;;;;;;;21.10;46.60;19.90;99269.00;;;;5084929;28;19927;-71
2022/09/27 11:44:24;;;;;;;;;;;21.10;46.60;19.90;99263.00;;;;5067102;28;20029;-71
2022/09/27 11:47:24;;;;;;;;;;;21.10;46.60;19.90;99261.00;;;;5081692;28;19955;-70
2022/09/27 11:50:26;;;;;;;;;;;21.10;46.60;19.90;99257.00;;;;5077001;28;19920;-71
2022/09/27 11:53:18;;;;;;;;;;;21.10;46.70;19.90;99259.00;;;;5082769;28;19967;-70
2022/09/27 11:56:22;;;;;;;;;;;21.10;46.70;19.90;99261.00;;;;5073072;28;19922;-70
2022/09/27 11:59:27;;;;;;;;;;;21.10;46.70;19.90;99264.00;;;;5084885;28;19923;-70
2022/09/27 12:02:19;;;;;;;;;;;21.10;46.70;19.90;99264.00;;;;5086392;28;19916;-70
2022/09/27 12:05:47;;;;;;;;;;;21.10;46.80;19.90;99271.00;;;;5083142;28;19924;-71
2022/09/27 12:08:46;;;;;;;;;;;21.10;46.80;19.90;99264.00;;;;5080860;28;19927;-71
2022/09/27 12:11:36;;;;;;;;;;;21.10;46.80;19.90;99265.00;;;;5097101;28;19923;-71
2022/09/27 12:14:46;;;;;;;;;;;21.10;46.80;19.90;99257.00;;;;5098494;28;20004;-71
2022/09/27 12:17:34;;;;;;;;;;;21.10;46.90;19.90;99256.00;;;;5113061;27;19957;-73
2022/09/27 12:20:32;;;;;;;;;;;21.10;46.90;19.90;99256.00;;;;5076035;28;19921;-71
2022/09/27 12:23:46;;;;;;;;;;;21.10;46.90;19.90;99253.00;;;;5071769;28;19916;-71
2022/09/27 12:26:40;;;;;;;;;;;21.10;46.90;19.90;99258.00;;;;5094324;28;20583;-71
2022/09/27 12:29:32;;;;;;;;;;;21.10;46.90;19.90;99257.00;;;;5079446;28;19925;-71
2022/09/27 12:32:24;;;;;;;;;;;21.10;46.90;19.90;99259.00;;;;5079161;28;20277;-71
2022/09/27 12:35:18;;;;;;;;;;;21.10;46.90;19.90;99258.00;;;;5080652;28;19928;-71
2022/09/27 12:38:25;;;;;;;;;;;21.10;46.90;19.90;99256.00;;;;5063963;28;20346;-71
2022/09/27 12:41:14;;;;;;;;;;;21.10;46.90;19.90;99254.00;;;;5064824;28;19921;-71
2022/09/27 12:44:00;;;;;;;;;;;21.10;46.90;19.90;99257.00;;;;5080368;28;19931;-71
2022/09/27 12:47:22;;;;;;;;;;;21.10;46.90;19.90;99263.00;;;;5075811;28;19920;-71
2022/09/27 12:50:16;;;;;;;;;;;21.10;46.90;19.90;99263.00;;;;5077471;28;19916;-71
2022/09/27 12:53:27;;;;;;;;;;;21.10;46.90;19.90;99257.00;;;;5065295;28;20334;-71
2022/09/27 12:56:30;;;;;;;;;;;21.10;46.90;19.90;99259.00;;;;5067362;28;19922;-70
2022/09/27 12:59:33;;;;;;;;;;;21.10;46.90;19.90;99263.00;;;;5059343;28;19920;-70
2022/09/27 13:02:30;;;;;;;;;;;21.10;46.90;19.90;99262.00;;;;5077368;28;19924;-71
2022/09/27 13:05:36;;;;;;;;;;;21.10;46.90;19.90;99252.00;;;;5088480;28;19924;-70
2022/09/27 13:08:56;;;;;;;;;;;21.10;46.90;19.90;99259.00;;;;5068535;28;19973;-70
2022/09/27 13:11:54;;;;;;;;;;;21.10;46.90;19.90;99265.00;;;;5075356;28;20401;-71
2022/09/27 13:15:02;;;;;;;;;;;21.10;47.00;19.90;99255.00;;;;5079910;28;19966;-71
2022/09/27 13:17:49;;;;;;;;;;;21.10;47.00;19.90;99252.00;;;;5089760;27;20258;-70
2022/09/27 13:20:35;;;;;;;;;;;21.10;47.00;19.90;99246.00;;;;5067250;28;19976;-70
2022/09/27 13:23:41;;;;;;;;;;;21.10;47.00;19.90;99249.00;;;;5079255;28;20165;-71
2022/09/27 13:26:34;;;;;;;;;;;21.20;47.00;19.90;99254.00;;;;5078805;28;19963;-71
2022/09/27 13:29:25;;;;;;;;;;;21.10;47.00;19.90;99254.00;;;;5080148;28;19916;-71
2022/09/27 13:32:22;;;;;;;;;;;21.10;46.90;19.90;99261.00;;;;5086109;27;20365;-71
2022/09/27 13:35:23;;;;;;;;;;;21.10;46.90;19.90;99274.00;;;;5079426;28;19969;-70
2022/09/27 13:38:20;;;;;;;;;;;21.10;46.90;19.90;99280.00;;;;5078621;28;19920;-71
2022/09/27 13:41:18;;;;;;;;;;;21.20;47.00;19.90;99282.00;;;;5095597;27;19919;-71
2022/09/27 13:44:12;;;;;;;;;;;21.20;47.00;19.90;99282.00;;;;5088865;28;20023;-71
2022/09/27 13:47:36;;;;;;;;;;;21.10;46.90;19.90;99278.00;;;;5076359;28;20251;-70
2022/09/27 13:50:27;;;;;;;;;;;21.10;47.00;19.90;99282.00;;;;5071860;28;20011;-71
2022/09/27 13:53:25;;;;;;;;;;;21.10;47.00;19.90;99289.00;;;;5086452;28;19924;-71
2022/09/27 13:56:36;;;;;;;;;;;21.10;47.00;20.00;99280.00;;;;5062875;28;19935;-71
2022/09/27 13:59:48;;;;;;;;;;;21.10;47.10;20.00;99288.00;;;;5079359;28;20508;-71
2022/09/27 14:03:10;;;;;;;;;;;21.10;47.10;20.00;99286.00;;;;5085233;28;19958;-71
2022/09/27 14:05:58;;;;;;;;;;;21.10;47.10;20.00;99278.00;;;;5066581;28;19924;-71
2022/09/27 14:09:06;;;;;;;;;;;21.20;47.20;20.00;99270.00;;;;5087566;28;19916;-71